Pilot No 5 — WDC3840 — position and weather

sailwx.info

Track history (hours):
 
Tides and Currents Weather Stations Pressure Air Temp Water Temp Dewpoint Dewpoint Depression Visibility Wind Speed Wind Dir Waves Ship Positions

Pilot No 5

Owner: P E P INC, FT LAUDERDALE, FL. More information available from US FCC via Universal Licensing System and Coast Guard Vessel Documentation Center.

Last reported at 2017-May-28 02:30 UTC. Time now 2017-May-28 02:55 UTC.
Position N 26°06' W 080°07'.

Length 6 m.

Type: Pilot. MMSI: 367015090.

Date/timePositionNaut miles runAvg speedWind from/ knotsBaromVisibWave heightAir tempDewpointWater temp
2017-May-28 02:30N 26°06' W 080°07'1 2.7
2017-May-28 02:00N 26°04' W 080°07'2 3.3
2017-May-28 01:28N 26°06' W 080°07'3 6.3
2017-May-28 01:00N 26°06' W 080°04'3 6.3
2017-May-28 00:30N 26°06' W 080°07'1 1.9
2017-May-28 00:00N 26°05' W 080°07'1 1.8
2017-May-27 23:30N 26°06' W 080°07'1 1.8
2017-May-27 23:00N 26°06' W 080°06'1 2.3
2017-May-27 22:30N 26°06' W 080°07'0 0.0
2017-May-27 21:31N 26°06' W 080°07'1 1.3
2017-May-27 21:00N 26°05' W 080°07'0 0.4
2017-May-27 20:30N 26°06' W 080°07'0 0.3
2017-May-27 20:00N 26°06' W 080°07'0 0.0
2017-May-27 02:33N 26°06' W 080°07'0 1.2
2017-May-27 02:30N 26°06' W 080°07'3 5.8
2017-May-27 02:00N 26°06' W 080°04'3 5.7
2017-May-27 01:30N 26°06' W 080°07'0 0.5
2017-May-27 01:00N 26°06' W 080°07'1 2.5
2017-May-27 00:30N 26°06' W 080°06'1 2.5
2017-May-27 00:00N 26°05' W 080°07'0 0.3
2017-May-26 22:27N 26°06' W 080°07'0 1.0
2017-May-26 22:00N 26°06' W 080°07'0 0.4
2017-May-26 21:30N 26°06' W 080°07'0 0.7
2017-May-26 21:00N 26°06' W 080°07'1 2.5
2017-May-26 20:30N 26°06' W 080°06'1 2.2
2017-May-26 20:00N 26°06' W 080°07'3 6.2
2017-May-26 19:30N 26°06' W 080°04'3 6.5
2017-May-26 18:59N 26°06' W 080°07'1 1.8
2017-May-26 18:30N 26°05' W 080°07'1 0.4
2017-May-26 16:29N 26°06' W 080°07'4 9.1
2017-May-26 16:00N 26°06' W 080°03'4 8.1
2017-May-26 15:30N 26°06' W 080°07'1 0.5
2017-May-26 14:19N 26°06' W 080°07'1 0.9
2017-May-26 13:30N 26°05' W 080°07'1 0.4
2017-May-26 11:44N 26°06' W 080°07'1 3.4
2017-May-26 11:30N 26°06' W 080°07'4 7.8
2017-May-26 11:00N 26°07' W 080°03'5 9.5
2017-May-26 10:30N 26°04' W 080°07'2 0.7
2017-May-26 07:36N 26°06' W 080°07'0 0.0
2017-May-26 05:29N 26°06' W 080°07'1 2.5
2017-May-26 05:00N 26°06' W 080°06'1 1.6
2017-May-26 04:30N 26°06' W 080°07'0 0.8
2017-May-26 04:00N 26°05' W 080°07'1 0.5
2017-May-26 02:13N 26°06' W 080°07'0 0.3
2017-May-26 02:00N 26°06' W 080°07'2 3.9
2017-May-26 01:30N 26°06' W 080°05'2 4.0
2017-May-26 01:00N 26°06' W 080°07'2 3.2
2017-May-26 00:30N 26°06' W 080°05'2 3.1
2017-May-26 00:01N 26°06' W 080°07'0 0.1
2017-May-25 23:31N 26°06' W 080°07'2 3.9
2017-May-25 23:00N 26°06' W 080°05'1 1.3
2017-May-25 22:30N 26°06' W 080°06'1 2.3
2017-May-25 22:00N 26°05' W 080°07'1 3.0
2017-May-25 21:30N 26°06' W 080°05'1 2.9
2017-May-25 21:01N 26°06' W 080°07'0 0.3
2017-May-25 19:53N 26°06' W 080°07'2 5.1
2017-May-25 19:30N 26°06' W 080°05'2 0.3
2017-May-25 11:41N 26°06' W 080°07'211.4
2017-May-25 11:30N 26°06' W 080°05'1 1.1
2017-May-25 11:00N 26°06' W 080°04'2 3.1
2017-May-25 10:31N 26°06' W 080°03'4 8.0
2017-May-25 10:00N 26°05' W 080°07'2 3.7
2017-May-25 09:30N 26°06' W 080°05'2 4.3
2017-May-25 09:00N 26°04' W 080°07'3 6.1
2017-May-25 08:30N 26°06' W 080°04'1 2.0
2017-May-25 08:00N 26°05' W 080°05'2 1.8
2017-May-25 06:48N 26°06' W 080°07'0 0.0
2017-May-25 05:46N 26°06' W 080°07'1 4.1
2017-May-25 05:31N 26°06' W 080°06'0 0.9
2017-May-25 05:00N 26°05' W 080°07'1 2.5
2017-May-25 04:30N 26°06' W 080°05'2 3.2
2017-May-25 04:00N 26°05' W 080°07'0 0.5
2017-May-25 03:30N 26°05' W 080°07'1 1.5
2017-May-25 02:59N 26°06' W 080°07'4 8.4
2017-May-25 02:30N 26°05' W 080°03'4 7.6
2017-May-25 02:00N 26°04' W 080°07'1 1.6
2017-May-25 01:30N 26°05' W 080°07'1 1.5
2017-May-25 01:00N 26°06' W 080°07'5 9.4
2017-May-25 00:30N 26°05' W 080°02'5 9.1
2017-May-25 00:00N 26°05' W 080°07'4 7.7
2017-May-24 23:30N 26°05' W 080°03'2 4.7
2017-May-24 23:00N 26°06' W 080°05'1 1.2
2017-May-24 22:30N 26°06' W 080°06'2 3.1
2017-May-24 22:00N 26°05' W 080°07'1 0.3
2017-May-24 19:54N 26°06' W 080°07'2 5.4
2017-May-24 19:30N 26°06' W 080°05'2 4.4
2017-May-24 18:59N 26°06' W 080°07'2 3.3
2017-May-24 18:30N 26°06' W 080°06'1 2.6
2017-May-24 18:00N 26°05' W 080°07'1 1.7
2017-May-24 17:30N 26°04' W 080°07'3 5.5
2017-May-24 17:01N 26°06' W 080°05'2 4.3
2017-May-24 16:30N 26°05' W 080°07'0 0.6
2017-May-24 16:00N 26°06' W 080°07'1 1.2
2017-May-24 15:27N 26°06' W 080°07'0 0.0
2017-May-24 15:00N 26°06' W 080°07'0 0.5
2017-May-24 14:30N 26°06' W 080°07'1 1.2
2017-May-24 13:30N 26°05' W 080°07'1 1.3
2017-May-24 12:25N 26°06' W 080°07'0 1.0
2017-May-24 12:00N 26°06' W 080°07'0 0.2
2017-May-24 11:30N 26°06' W 080°07'0 0.6
2017-May-24 10:41N 26°06' W 080°07'1 5.8
2017-May-24 10:31N 26°06' W 080°06'1 1.4
2017-May-24 10:00N 26°05' W 080°07'1 1.3
2017-May-24 09:24N 26°06' W 080°07'2 5.3
2017-May-24 09:00N 26°04' W 080°07'1 2.8
2017-May-24 08:30N 26°06' W 080°07'0 0.3
2017-May-24 08:01N 26°05' W 080°07'1 1.6
2017-May-24 07:30N 26°06' W 080°06'1 0.5
2017-May-24 04:47N 26°06' W 080°07'2 5.6
2017-May-24 04:30N 26°06' W 080°06'1 2.7
2017-May-24 04:00N 26°06' W 080°07'0 0.4
2017-May-24 03:02N 26°06' W 080°07'0 5.1
2017-May-24 03:00N 26°06' W 080°07'2 3.1
2017-May-24 02:30N 26°06' W 080°05'2 1.6
2017-May-24 01:27N 26°06' W 080°07'2 4.7
2017-May-24 01:00N 26°06' W 080°05'2 3.5
2017-May-24 00:30N 26°06' W 080°07'3 5.4
2017-May-24 00:00N 26°06' W 080°04'3 5.2
2017-May-23 23:30N 26°05' W 080°07'1 1.7
2017-May-23 23:00N 26°06' W 080°07'1 1.7
2017-May-23 22:30N 26°05' W 080°07'1 1.3
2017-May-23 22:00N 26°06' W 080°07'1 1.6
2017-May-23 21:30N 26°06' W 080°07'0 0.0
2017-May-23 21:00N 26°06' W 080°07'0 0.0
2017-May-23 19:04N 26°06' W 080°07'0 3.0
2017-May-23 19:00N 26°06' W 080°07'3 6.9
2017-May-23 18:30N 26°06' W 080°03'3 6.8
2017-May-23 18:00N 26°05' W 080°07'2 3.2
2017-May-23 17:30N 26°06' W 080°05'2 3.4
2017-May-23 17:00N 26°04' W 080°07'1 1.9
2017-May-23 16:30N 26°05' W 080°07'2 3.9
2017-May-23 16:00N 26°06' W 080°05'2 3.9
2017-May-23 15:26N 26°06' W 080°07'1 1.4
2017-May-23 15:00N 26°06' W 080°07'1 1.5
2017-May-23 14:00N 26°06' W 080°06'1 2.9
2017-May-23 13:30N 26°06' W 080°07'0 0.1
2017-May-23 09:24N 26°06' W 080°07'513.5
2017-May-23 09:00N 26°05' W 080°01'510.0
2017-May-23 08:30N 26°05' W 080°07'3 6.0
2017-May-23 08:00N 26°06' W 080°04'3 5.9
2017-May-23 07:30N 26°05' W 080°07'1 0.3
2017-May-23 02:30N 26°06' W 080°07'2 5.0
2017-May-23 02:00N 26°06' W 080°05'2 4.6
2017-May-23 01:30N 26°05' W 080°07'2 2.9
2017-May-23 00:56N 26°06' W 080°07'0 0.0
2017-May-23 00:28N 26°06' W 080°07'1 2.9
2017-May-23 00:00N 26°06' W 080°06'1 2.8
2017-May-22 23:30N 26°05' W 080°04'2 5.0
2017-May-22 23:01N 26°06' W 080°07'0 0.7
2017-May-22 22:30N 26°05' W 080°07'2 3.4
2017-May-22 22:00N 26°05' W 080°05'2 3.7
2017-May-22 21:30N 26°05' W 080°07'1 1.3
2017-May-22 20:53N 26°06' W 080°07'2 5.4
2017-May-22 20:30N 26°05' W 080°05'2 3.1
2017-May-22 20:00N 26°05' W 080°07'1 2.6
2017-May-22 19:30N 26°06' W 080°06'1 2.9
2017-May-22 19:00N 26°06' W 080°07'4 7.9
2017-May-22 18:30N 26°05' W 080°03'4 7.4
2017-May-22 18:00N 26°05' W 080°07'0 0.7
2017-May-22 17:30N 26°04' W 080°07'2 3.8
2017-May-22 17:00N 26°06' W 080°07'1 1.5
2017-May-22 16:31N 26°06' W 080°07'0 0.1
2017-May-22 16:00N 26°06' W 080°07'1 1.3
2017-May-22 15:26N 26°06' W 080°07'0 0.0
2017-May-22 15:00N 26°06' W 080°07'0 0.0
2017-May-22 13:58N 26°06' W 080°07'0 0.0
2017-May-22 12:00N 26°06' W 080°07'3 5.2
2017-May-22 11:30N 26°06' W 080°05'3 4.9
2017-May-22 10:59N 26°06' W 080°07'3 5.5
2017-May-22 10:30N 26°06' W 080°04'3 5.4
2017-May-22 10:00N 26°04' W 080°07'1 2.4
2017-May-22 09:30N 26°05' W 080°07'3 5.6
2017-May-22 09:00N 26°05' W 080°04'2 4.4
2017-May-22 08:30N 26°07' W 080°05'2 4.7
2017-May-22 08:01N 26°06' W 080°07'1 0.2
2017-May-22 05:44N 26°06' W 080°07'2 7.1
2017-May-22 05:30N 26°06' W 080°06'1 2.8
2017-May-22 05:00N 26°06' W 080°05'1 1.6
2017-May-22 04:31N 26°06' W 080°06'1 1.8
2017-May-22 04:00N 26°06' W 080°06'1 2.9
2017-May-22 03:30N 26°06' W 080°07'0 0.1
2017-May-22 02:39N 26°06' W 080°07'1 4.8
2017-May-22 02:30N 26°06' W 080°07'1 2.1
2017-May-22 02:00N 26°06' W 080°06'2 3.8
2017-May-22 01:30N 26°06' W 080°04'3 6.0
2017-May-22 00:58N 26°06' W 080°07'0 0.0
2017-May-22 00:29N 26°06' W 080°07'0 0.0
2017-May-21 23:44N 26°06' W 080°07'0 0.0
2017-May-21 23:29N 26°06' W 080°07'0 0.1
2017-May-21 22:59N 26°06' W 080°07'1 2.0
2017-May-21 22:30N 26°06' W 080°06'1 2.0
2017-May-21 22:00N 26°06' W 080°07'0 0.5
2017-May-21 21:30N 26°06' W 080°07'1 1.2
2017-May-21 21:00N 26°06' W 080°07'0 0.3
2017-May-21 20:30N 26°06' W 080°07'0 0.2
2017-May-21 20:01N 26°06' W 080°07'1 1.2
2017-May-21 19:26N 26°06' W 080°07'0 0.0
2017-May-21 16:23N 26°06' W 080°07'1 2.1
2017-May-21 16:00N 26°06' W 080°07'0 0.3
2017-May-21 15:30N 26°06' W 080°07'3 5.6
2017-May-21 15:00N 26°06' W 080°03'4 3.5
2017-May-21 14:00N 26°06' W 080°07'0 0.0
2017-May-21 13:29N 26°06' W 080°07'1 1.6
2017-May-21 13:00N 26°05' W 080°07'0 0.6
2017-May-21 12:30N 26°06' W 080°07'0 0.5
2017-May-21 12:00N 26°05' W 080°07'4 8.4
2017-May-21 11:30N 26°06' W 080°02'4 2.3
2017-May-21 09:32N 26°06' W 080°07'0 3.9
2017-May-21 09:30N 26°06' W 080°07'3 6.9
2017-May-21 09:00N 26°06' W 080°03'1 1.4
2017-May-21 08:31N 26°05' W 080°03'4 7.4
2017-May-21 08:01N 26°05' W 080°07'1 0.2
2017-May-21 03:03N 26°06' W 080°07'0 4.4
2017-May-21 02:59N 26°06' W 080°07'1 1.3
2017-May-21 02:30N 26°05' W 080°07'3 5.6
2017-May-21 02:00N 26°06' W 080°04'3 6.0
2017-May-21 01:30N 26°06' W 080°07'3 6.0
2017-May-21 01:00N 26°06' W 080°04'3 6.6
2017-May-21 00:30N 26°05' W 080°07'0 0.7
2017-May-21 00:01N 26°06' W 080°07'0 0.5
2017-May-20 23:30N 26°06' W 080°07'1 1.0
2017-May-20 23:00N 26°06' W 080°07'1 2.9
2017-May-20 22:30N 26°05' W 080°07'1 1.3
2017-May-20 22:00N 26°05' W 080°07'0 0.8
2017-May-20 21:31N 26°06' W 080°07'4 7.3
2017-May-20 21:00N 26°05' W 080°03'4 7.5
2017-May-20 20:31N 26°06' W 080°07'0 0.3
2017-May-20 20:01N 26°06' W 080°07'1 1.2
2017-May-20 19:27N 26°06' W 080°07'510.8
2017-May-20 19:00N 26°07' W 080°02'510.2
2017-May-20 18:30N 26°04' W 080°07'1 2.3
2017-May-20 18:00N 26°05' W 080°07'0 0.5
2017-May-20 17:30N 26°05' W 080°07'0 0.7
2017-May-20 16:59N 26°06' W 080°07'0 0.3
2017-May-20 16:30N 26°06' W 080°07'0 0.2
2017-May-20 16:00N 26°06' W 080°07'1 1.0
2017-May-20 15:24N 26°06' W 080°07'0 0.0
2017-May-20 14:51N 26°06' W 080°07'513.8
2017-May-20 14:30N 26°05' W 080°02'4 3.6
2017-May-20 13:30N 26°06' W 080°06'1 1.9
2017-May-20 13:00N 26°05' W 080°07'0 0.2
2017-May-20 12:30N 26°05' W 080°07'0 0.8
2017-May-20 12:00N 26°06' W 080°07'1 1.0
2017-May-20 11:14N 26°06' W 080°07'1 4.5
2017-May-20 11:00N 26°05' W 080°07'0 0.6
2017-May-20 10:31N 26°06' W 080°07'2 3.7
2017-May-20 10:00N 26°06' W 080°05'2 4.2
2017-May-20 09:30N 26°05' W 080°07'4 7.3
2017-May-20 09:00N 26°05' W 080°03'0 0.5
2017-May-20 08:30N 26°05' W 080°03'4 8.3
2017-May-20 08:00N 26°06' W 080°07'4 7.7
2017-May-20 07:30N 26°05' W 080°03'3 6.7
2017-May-20 07:00N 26°05' W 080°07'2 3.1
2017-May-20 06:30N 26°06' W 080°07'0 0.4
2017-May-20 05:59N 26°06' W 080°07'0 0.0
2017-May-20 05:30N 26°06' W 080°07'0 0.0
2017-May-20 05:00N 26°06' W 080°07'0 0.0
2017-May-20 04:30N 26°06' W 080°07'0 0.0
2017-May-20 04:00N 26°06' W 080°07'2 3.5
2017-May-20 03:30N 26°06' W 080°05'2 1.0
2017-May-20 01:47N 26°06' W 080°07'0 1.1
2017-May-20 01:29N 26°06' W 080°07'4 7.4
2017-May-20 01:00N 26°06' W 080°03'1 1.8
2017-May-20 00:30N 26°06' W 080°04'2 4.2
2017-May-20 00:01N 26°06' W 080°07'1 1.8
2017-May-19 23:31N 26°06' W 080°07'1 1.5
2017-May-19 23:00N 26°05' W 080°07'2 4.5
2017-May-19 22:30N 26°06' W 080°04'3 5.5
2017-May-19 22:00N 26°04' W 080°07'1 1.3
2017-May-19 21:30N 26°05' W 080°07'2 4.8
2017-May-19 21:01N 26°06' W 080°04'3 5.2
2017-May-19 20:30N 26°04' W 080°07'2 3.6
2017-May-19 20:00N 26°06' W 080°07'0 0.4
2017-May-19 19:30N 26°06' W 080°07'0 0.4
2017-May-19 18:56N 26°06' W 080°07'0 0.0
2017-May-19 02:49N 26°06' W 080°07'1 1.7
2017-May-19 02:30N 26°06' W 080°07'0 0.2
2017-May-19 02:00N 26°06' W 080°07'1 3.0
2017-May-19 01:30N 26°06' W 080°05'1 2.6
2017-May-19 01:00N 26°06' W 080°04'1 1.8
2017-May-19 00:30N 26°06' W 080°05'0 0.7
2017-May-19 00:00N 26°06' W 080°05'2 3.7
2017-May-18 23:30N 26°04' W 080°07'1 1.7
2017-May-18 23:00N 26°05' W 080°07'1 2.0
2017-May-18 22:30N 26°06' W 080°07'0 0.0
2017-May-18 22:00N 26°06' W 080°07'1 1.8
2017-May-18 21:30N 26°05' W 080°07'3 5.9
2017-May-18 21:00N 26°06' W 080°04'2 4.7
2017-May-18 20:30N 26°06' W 080°06'0 0.9
2017-May-18 20:00N 26°06' W 080°07'0 0.7
2017-May-18 19:30N 26°06' W 080°07'2 3.2
2017-May-18 19:00N 26°06' W 080°05'2 3.1
2017-May-18 18:30N 26°06' W 080°07'1 2.2
2017-May-18 18:00N 26°06' W 080°06'2 4.9
2017-May-18 17:30N 26°05' W 080°03'4 7.1
2017-May-18 17:00N 26°05' W 080°07'0 0.3
2017-May-18 16:30N 26°06' W 080°07'1 0.4
2017-May-18 14:57N 26°06' W 080°07'0 1.1
2017-May-18 14:30N 26°06' W 080°07'1 1.1
2017-May-18 13:30N 26°05' W 080°07'2 2.2
2017-May-18 12:46N 26°06' W 080°07'0 0.0
2017-May-18 12:30N 26°06' W 080°07'1 1.5
2017-May-18 12:00N 26°06' W 080°07'1 0.2
2017-May-18 08:29N 26°06' W 080°07'3 6.7
2017-May-18 08:00N 26°06' W 080°04'3 5.9
2017-May-18 07:30N 26°04' W 080°07'2 2.2
2017-May-18 06:43N 26°06' W 080°07'0 0.0
2017-May-18 06:14N 26°06' W 080°07'2 8.8
2017-May-18 06:00N 26°06' W 080°05'1 2.4
2017-May-18 05:30N 26°06' W 080°07'1 1.7
2017-May-18 05:00N 26°06' W 080°06'1 2.9
2017-May-18 04:30N 26°06' W 080°07'0 0.1
2017-May-18 03:18N 26°06' W 080°07'1 4.6
2017-May-18 03:00N 26°05' W 080°07'2 3.8
2017-May-18 02:30N 26°06' W 080°05'  
Track history (hours):
 
Tides and Currents Weather Stations Pressure Air Temp Water Temp Dewpoint Dewpoint Depression Visibility Wind Speed Wind Dir Waves Ship Positions

Pilot No 5

Owner: P E P INC, FT LAUDERDALE, FL. More information available from US FCC via Universal Licensing System and Coast Guard Vessel Documentation Center.

Last reported at 2017-May-28 02:30 UTC. Time now 2017-May-28 02:55 UTC.
Position N 26°06' W 080°07'.

Length 6 m.

Type: Pilot. MMSI: 367015090.

Date/timePositionNaut miles runAvg speedWind from/ knotsBaromVisibWave heightAir tempDewpointWater temp
2017-May-28 02:30N 26°06' W 080°07'1 2.7
2017-May-28 02:00N 26°04' W 080°07'2 3.3
2017-May-28 01:28N 26°06' W 080°07'3 6.3
2017-May-28 01:00N 26°06' W 080°04'3 6.3
2017-May-28 00:30N 26°06' W 080°07'1 1.9
2017-May-28 00:00N 26°05' W 080°07'1 1.8
2017-May-27 23:30N 26°06' W 080°07'1 1.8
2017-May-27 23:00N 26°06' W 080°06'1 2.3
2017-May-27 22:30N 26°06' W 080°07'0 0.0
2017-May-27 21:31N 26°06' W 080°07'1 1.3
2017-May-27 21:00N 26°05' W 080°07'0 0.4
2017-May-27 20:30N 26°06' W 080°07'0 0.3
2017-May-27 20:00N 26°06' W 080°07'0 0.0
2017-May-27 02:33N 26°06' W 080°07'0 1.2
2017-May-27 02:30N 26°06' W 080°07'3 5.8
2017-May-27 02:00N 26°06' W 080°04'3 5.7
2017-May-27 01:30N 26°06' W 080°07'0 0.5
2017-May-27 01:00N 26°06' W 080°07'1 2.5
2017-May-27 00:30N 26°06' W 080°06'1 2.5
2017-May-27 00:00N 26°05' W 080°07'0 0.3
2017-May-26 22:27N 26°06' W 080°07'0 1.0
2017-May-26 22:00N 26°06' W 080°07'0 0.4
2017-May-26 21:30N 26°06' W 080°07'0 0.7
2017-May-26 21:00N 26°06' W 080°07'1 2.5
2017-May-26 20:30N 26°06' W 080°06'1 2.2
2017-May-26 20:00N 26°06' W 080°07'3 6.2
2017-May-26 19:30N 26°06' W 080°04'3 6.5
2017-May-26 18:59N 26°06' W 080°07'1 1.8
2017-May-26 18:30N 26°05' W 080°07'1 0.4
2017-May-26 16:29N 26°06' W 080°07'4 9.1
2017-May-26 16:00N 26°06' W 080°03'4 8.1
2017-May-26 15:30N 26°06' W 080°07'1 0.5
2017-May-26 14:19N 26°06' W 080°07'1 0.9
2017-May-26 13:30N 26°05' W 080°07'1 0.4
2017-May-26 11:44N 26°06' W 080°07'1 3.4
2017-May-26 11:30N 26°06' W 080°07'4 7.8
2017-May-26 11:00N 26°07' W 080°03'5 9.5
2017-May-26 10:30N 26°04' W 080°07'2 0.7
2017-May-26 07:36N 26°06' W 080°07'0 0.0
2017-May-26 05:29N 26°06' W 080°07'1 2.5
2017-May-26 05:00N 26°06' W 080°06'1 1.6
2017-May-26 04:30N 26°06' W 080°07'0 0.8
2017-May-26 04:00N 26°05' W 080°07'1 0.5
2017-May-26 02:13N 26°06' W 080°07'0 0.3
2017-May-26 02:00N 26°06' W 080°07'2 3.9
2017-May-26 01:30N 26°06' W 080°05'2 4.0
2017-May-26 01:00N 26°06' W 080°07'2 3.2
2017-May-26 00:30N 26°06' W 080°05'2 3.1
2017-May-26 00:01N 26°06' W 080°07'0 0.1
2017-May-25 23:31N 26°06' W 080°07'2 3.9
2017-May-25 23:00N 26°06' W 080°05'1 1.3
2017-May-25 22:30N 26°06' W 080°06'1 2.3
2017-May-25 22:00N 26°05' W 080°07'1 3.0
2017-May-25 21:30N 26°06' W 080°05'1 2.9
2017-May-25 21:01N 26°06' W 080°07'0 0.3
2017-May-25 19:53N 26°06' W 080°07'2 5.1
2017-May-25 19:30N 26°06' W 080°05'2 0.3
2017-May-25 11:41N 26°06' W 080°07'211.4
2017-May-25 11:30N 26°06' W 080°05'1 1.1
2017-May-25 11:00N 26°06' W 080°04'2 3.1
2017-May-25 10:31N 26°06' W 080°03'4 8.0
2017-May-25 10:00N 26°05' W 080°07'2 3.7
2017-May-25 09:30N 26°06' W 080°05'2 4.3
2017-May-25 09:00N 26°04' W 080°07'3 6.1
2017-May-25 08:30N 26°06' W 080°04'1 2.0
2017-May-25 08:00N 26°05' W 080°05'2 1.8
2017-May-25 06:48N 26°06' W 080°07'0 0.0
2017-May-25 05:46N 26°06' W 080°07'1 4.1
2017-May-25 05:31N 26°06' W 080°06'0 0.9
2017-May-25 05:00N 26°05' W 080°07'1 2.5
2017-May-25 04:30N 26°06' W 080°05'2 3.2
2017-May-25 04:00N 26°05' W 080°07'0 0.5
2017-May-25 03:30N 26°05' W 080°07'1 1.5
2017-May-25 02:59N 26°06' W 080°07'4 8.4
2017-May-25 02:30N 26°05' W 080°03'4 7.6
2017-May-25 02:00N 26°04' W 080°07'1 1.6
2017-May-25 01:30N 26°05' W 080°07'1 1.5
2017-May-25 01:00N 26°06' W 080°07'5 9.4
2017-May-25 00:30N 26°05' W 080°02'5 9.1
2017-May-25 00:00N 26°05' W 080°07'4 7.7
2017-May-24 23:30N 26°05' W 080°03'2 4.7
2017-May-24 23:00N 26°06' W 080°05'1 1.2
2017-May-24 22:30N 26°06' W 080°06'2 3.1
2017-May-24 22:00N 26°05' W 080°07'1 0.3
2017-May-24 19:54N 26°06' W 080°07'2 5.4
2017-May-24 19:30N 26°06' W 080°05'2 4.4
2017-May-24 18:59N 26°06' W 080°07'2 3.3
2017-May-24 18:30N 26°06' W 080°06'1 2.6
2017-May-24 18:00N 26°05' W 080°07'1 1.7
2017-May-24 17:30N 26°04' W 080°07'3 5.5
2017-May-24 17:01N 26°06' W 080°05'2 4.3
2017-May-24 16:30N 26°05' W 080°07'0 0.6
2017-May-24 16:00N 26°06' W 080°07'1 1.2
2017-May-24 15:27N 26°06' W 080°07'0 0.0
2017-May-24 15:00N 26°06' W 080°07'0 0.5
2017-May-24 14:30N 26°06' W 080°07'1 1.2
2017-May-24 13:30N 26°05' W 080°07'1 1.3
2017-May-24 12:25N 26°06' W 080°07'0 1.0
2017-May-24 12:00N 26°06' W 080°07'0 0.2
2017-May-24 11:30N 26°06' W 080°07'0 0.6
2017-May-24 10:41N 26°06' W 080°07'1 5.8
2017-May-24 10:31N 26°06' W 080°06'1 1.4
2017-May-24 10:00N 26°05' W 080°07'1 1.3
2017-May-24 09:24N 26°06' W 080°07'2 5.3
2017-May-24 09:00N 26°04' W 080°07'1 2.8
2017-May-24 08:30N 26°06' W 080°07'0 0.3
2017-May-24 08:01N 26°05' W 080°07'1 1.6
2017-May-24 07:30N 26°06' W 080°06'1 0.5
2017-May-24 04:47N 26°06' W 080°07'2 5.6
2017-May-24 04:30N 26°06' W 080°06'1 2.7
2017-May-24 04:00N 26°06' W 080°07'0 0.4
2017-May-24 03:02N 26°06' W 080°07'0 5.1
2017-May-24 03:00N 26°06' W 080°07'2 3.1
2017-May-24 02:30N 26°06' W 080°05'2 1.6
2017-May-24 01:27N 26°06' W 080°07'2 4.7
2017-May-24 01:00N 26°06' W 080°05'2 3.5
2017-May-24 00:30N 26°06' W 080°07'3 5.4
2017-May-24 00:00N 26°06' W 080°04'3 5.2
2017-May-23 23:30N 26°05' W 080°07'1 1.7
2017-May-23 23:00N 26°06' W 080°07'1 1.7
2017-May-23 22:30N 26°05' W 080°07'1 1.3
2017-May-23 22:00N 26°06' W 080°07'1 1.6
2017-May-23 21:30N 26°06' W 080°07'0 0.0
2017-May-23 21:00N 26°06' W 080°07'0 0.0
2017-May-23 19:04N 26°06' W 080°07'0 3.0
2017-May-23 19:00N 26°06' W 080°07'3 6.9
2017-May-23 18:30N 26°06' W 080°03'3 6.8
2017-May-23 18:00N 26°05' W 080°07'2 3.2
2017-May-23 17:30N 26°06' W 080°05'2 3.4
2017-May-23 17:00N 26°04' W 080°07'1 1.9
2017-May-23 16:30N 26°05' W 080°07'2 3.9
2017-May-23 16:00N 26°06' W 080°05'2 3.9
2017-May-23 15:26N 26°06' W 080°07'1 1.4
2017-May-23 15:00N 26°06' W 080°07'1 1.5
2017-May-23 14:00N 26°06' W 080°06'1 2.9
2017-May-23 13:30N 26°06' W 080°07'0 0.1
2017-May-23 09:24N 26°06' W 080°07'513.5
2017-May-23 09:00N 26°05' W 080°01'510.0
2017-May-23 08:30N 26°05' W 080°07'3 6.0
2017-May-23 08:00N 26°06' W 080°04'3 5.9
2017-May-23 07:30N 26°05' W 080°07'1 0.3
2017-May-23 02:30N 26°06' W 080°07'2 5.0
2017-May-23 02:00N 26°06' W 080°05'2 4.6
2017-May-23 01:30N 26°05' W 080°07'2 2.9
2017-May-23 00:56N 26°06' W 080°07'0 0.0
2017-May-23 00:28N 26°06' W 080°07'1 2.9
2017-May-23 00:00N 26°06' W 080°06'1 2.8
2017-May-22 23:30N 26°05' W 080°04'2 5.0
2017-May-22 23:01N 26°06' W 080°07'0 0.7
2017-May-22 22:30N 26°05' W 080°07'2 3.4
2017-May-22 22:00N 26°05' W 080°05'2 3.7
2017-May-22 21:30N 26°05' W 080°07'1 1.3
2017-May-22 20:53N 26°06' W 080°07'2 5.4
2017-May-22 20:30N 26°05' W 080°05'2 3.1
2017-May-22 20:00N 26°05' W 080°07'1 2.6
2017-May-22 19:30N 26°06' W 080°06'1 2.9
2017-May-22 19:00N 26°06' W 080°07'4 7.9
2017-May-22 18:30N 26°05' W 080°03'4 7.4
2017-May-22 18:00N 26°05' W 080°07'0 0.7
2017-May-22 17:30N 26°04' W 080°07'2 3.8
2017-May-22 17:00N 26°06' W 080°07'1 1.5
2017-May-22 16:31N 26°06' W 080°07'0 0.1
2017-May-22 16:00N 26°06' W 080°07'1 1.3
2017-May-22 15:26N 26°06' W 080°07'0 0.0
2017-May-22 15:00N 26°06' W 080°07'0 0.0
2017-May-22 13:58N 26°06' W 080°07'0 0.0
2017-May-22 12:00N 26°06' W 080°07'3 5.2
2017-May-22 11:30N 26°06' W 080°05'3 4.9
2017-May-22 10:59N 26°06' W 080°07'3 5.5
2017-May-22 10:30N 26°06' W 080°04'3 5.4
2017-May-22 10:00N 26°04' W 080°07'1 2.4
2017-May-22 09:30N 26°05' W 080°07'3 5.6
2017-May-22 09:00N 26°05' W 080°04'2 4.4
2017-May-22 08:30N 26°07' W 080°05'2 4.7
2017-May-22 08:01N 26°06' W 080°07'1 0.2
2017-May-22 05:44N 26°06' W 080°07'2 7.1
2017-May-22 05:30N 26°06' W 080°06'1 2.8
2017-May-22 05:00N 26°06' W 080°05'1 1.6
2017-May-22 04:31N 26°06' W 080°06'1 1.8
2017-May-22 04:00N 26°06' W 080°06'1 2.9
2017-May-22 03:30N 26°06' W 080°07'0 0.1
2017-May-22 02:39N 26°06' W 080°07'1 4.8
2017-May-22 02:30N 26°06' W 080°07'1 2.1
2017-May-22 02:00N 26°06' W 080°06'2 3.8
2017-May-22 01:30N 26°06' W 080°04'3 6.0
2017-May-22 00:58N 26°06' W 080°07'0 0.0
2017-May-22 00:29N 26°06' W 080°07'0 0.0
2017-May-21 23:44N 26°06' W 080°07'0 0.0
2017-May-21 23:29N 26°06' W 080°07'0 0.1
2017-May-21 22:59N 26°06' W 080°07'1 2.0
2017-May-21 22:30N 26°06' W 080°06'1 2.0
2017-May-21 22:00N 26°06' W 080°07'0 0.5
2017-May-21 21:30N 26°06' W 080°07'1 1.2
2017-May-21 21:00N 26°06' W 080°07'0 0.3
2017-May-21 20:30N 26°06' W 080°07'0 0.2
2017-May-21 20:01N 26°06' W 080°07'1 1.2
2017-May-21 19:26N 26°06' W 080°07'0 0.0
2017-May-21 16:23N 26°06' W 080°07'1 2.1
2017-May-21 16:00N 26°06' W 080°07'0 0.3
2017-May-21 15:30N 26°06' W 080°07'3 5.6
2017-May-21 15:00N 26°06' W 080°03'4 3.5
2017-May-21 14:00N 26°06' W 080°07'0 0.0
2017-May-21 13:29N 26°06' W 080°07'1 1.6
2017-May-21 13:00N 26°05' W 080°07'0 0.6
2017-May-21 12:30N 26°06' W 080°07'0 0.5
2017-May-21 12:00N 26°05' W 080°07'4 8.4
2017-May-21 11:30N 26°06' W 080°02'4 2.3
2017-May-21 09:32N 26°06' W 080°07'0 3.9
2017-May-21 09:30N 26°06' W 080°07'3 6.9
2017-May-21 09:00N 26°06' W 080°03'1 1.4
2017-May-21 08:31N 26°05' W 080°03'4 7.4
2017-May-21 08:01N 26°05' W 080°07'1 0.2
2017-May-21 03:03N 26°06' W 080°07'0 4.4
2017-May-21 02:59N 26°06' W 080°07'1 1.3
2017-May-21 02:30N 26°05' W 080°07'3 5.6
2017-May-21 02:00N 26°06' W 080°04'3 6.0
2017-May-21 01:30N 26°06' W 080°07'3 6.0
2017-May-21 01:00N 26°06' W 080°04'3 6.6
2017-May-21 00:30N 26°05' W 080°07'0 0.7
2017-May-21 00:01N 26°06' W 080°07'0 0.5
2017-May-20 23:30N 26°06' W 080°07'1 1.0
2017-May-20 23:00N 26°06' W 080°07'1 2.9
2017-May-20 22:30N 26°05' W 080°07'1 1.3
2017-May-20 22:00N 26°05' W 080°07'0 0.8
2017-May-20 21:31N 26°06' W 080°07'4 7.3
2017-May-20 21:00N 26°05' W 080°03'4 7.5
2017-May-20 20:31N 26°06' W 080°07'0 0.3
2017-May-20 20:01N 26°06' W 080°07'1 1.2
2017-May-20 19:27N 26°06' W 080°07'510.8
2017-May-20 19:00N 26°07' W 080°02'510.2
2017-May-20 18:30N 26°04' W 080°07'1 2.3
2017-May-20 18:00N 26°05' W 080°07'0 0.5
2017-May-20 17:30N 26°05' W 080°07'0 0.7
2017-May-20 16:59N 26°06' W 080°07'0 0.3
2017-May-20 16:30N 26°06' W 080°07'0 0.2
2017-May-20 16:00N 26°06' W 080°07'1 1.0
2017-May-20 15:24N 26°06' W 080°07'0 0.0
2017-May-20 14:51N 26°06' W 080°07'513.8
2017-May-20 14:30N 26°05' W 080°02'4 3.6
2017-May-20 13:30N 26°06' W 080°06'1 1.9
2017-May-20 13:00N 26°05' W 080°07'0 0.2
2017-May-20 12:30N 26°05' W 080°07'0 0.8
2017-May-20 12:00N 26°06' W 080°07'1 1.0
2017-May-20 11:14N 26°06' W 080°07'1 4.5
2017-May-20 11:00N 26°05' W 080°07'0 0.6
2017-May-20 10:31N 26°06' W 080°07'2 3.7
2017-May-20 10:00N 26°06' W 080°05'2 4.2
2017-May-20 09:30N 26°05' W 080°07'4 7.3
2017-May-20 09:00N 26°05' W 080°03'0 0.5
2017-May-20 08:30N 26°05' W 080°03'4 8.3
2017-May-20 08:00N 26°06' W 080°07'4 7.7
2017-May-20 07:30N 26°05' W 080°03'3 6.7
2017-May-20 07:00N 26°05' W 080°07'2 3.1
2017-May-20 06:30N 26°06' W 080°07'0 0.4
2017-May-20 05:59N 26°06' W 080°07'0 0.0
2017-May-20 05:30N 26°06' W 080°07'0 0.0
2017-May-20 05:00N 26°06' W 080°07'0 0.0
2017-May-20 04:30N 26°06' W 080°07'0 0.0
2017-May-20 04:00N 26°06' W 080°07'2 3.5
2017-May-20 03:30N 26°06' W 080°05'2 1.0
2017-May-20 01:47N 26°06' W 080°07'0 1.1
2017-May-20 01:29N 26°06' W 080°07'4 7.4
2017-May-20 01:00N 26°06' W 080°03'1 1.8
2017-May-20 00:30N 26°06' W 080°04'2 4.2
2017-May-20 00:01N 26°06' W 080°07'1 1.8
2017-May-19 23:31N 26°06' W 080°07'1 1.5
2017-May-19 23:00N 26°05' W 080°07'2 4.5
2017-May-19 22:30N 26°06' W 080°04'3 5.5
2017-May-19 22:00N 26°04' W 080°07'1 1.3
2017-May-19 21:30N 26°05' W 080°07'2 4.8
2017-May-19 21:01N 26°06' W 080°04'3 5.2
2017-May-19 20:30N 26°04' W 080°07'2 3.6
2017-May-19 20:00N 26°06' W 080°07'0 0.4
2017-May-19 19:30N 26°06' W 080°07'0 0.4
2017-May-19 18:56N 26°06' W 080°07'0 0.0
2017-May-19 02:49N 26°06' W 080°07'1 1.7
2017-May-19 02:30N 26°06' W 080°07'0 0.2
2017-May-19 02:00N 26°06' W 080°07'1 3.0
2017-May-19 01:30N 26°06' W 080°05'1 2.6
2017-May-19 01:00N 26°06' W 080°04'1 1.8
2017-May-19 00:30N 26°06' W 080°05'0 0.7
2017-May-19 00:00N 26°06' W 080°05'2 3.7
2017-May-18 23:30N 26°04' W 080°07'1 1.7
2017-May-18 23:00N 26°05' W 080°07'1 2.0
2017-May-18 22:30N 26°06' W 080°07'0 0.0
2017-May-18 22:00N 26°06' W 080°07'1 1.8
2017-May-18 21:30N 26°05' W 080°07'3 5.9
2017-May-18 21:00N 26°06' W 080°04'2 4.7
2017-May-18 20:30N 26°06' W 080°06'0 0.9
2017-May-18 20:00N 26°06' W 080°07'0 0.7
2017-May-18 19:30N 26°06' W 080°07'2 3.2
2017-May-18 19:00N 26°06' W 080°05'2 3.1
2017-May-18 18:30N 26°06' W 080°07'1 2.2
2017-May-18 18:00N 26°06' W 080°06'2 4.9
2017-May-18 17:30N 26°05' W 080°03'4 7.1
2017-May-18 17:00N 26°05' W 080°07'0 0.3
2017-May-18 16:30N 26°06' W 080°07'1 0.4
2017-May-18 14:57N 26°06' W 080°07'0 1.1
2017-May-18 14:30N 26°06' W 080°07'1 1.1
2017-May-18 13:30N 26°05' W 080°07'2 2.2
2017-May-18 12:46N 26°06' W 080°07'0 0.0
2017-May-18 12:30N 26°06' W 080°07'1 1.5
2017-May-18 12:00N 26°06' W 080°07'1 0.2
2017-May-18 08:29N 26°06' W 080°07'3 6.7
2017-May-18 08:00N 26°06' W 080°04'3 5.9
2017-May-18 07:30N 26°04' W 080°07'2 2.2
2017-May-18 06:43N 26°06' W 080°07'0 0.0
2017-May-18 06:14N 26°06' W 080°07'2 8.8
2017-May-18 06:00N 26°06' W 080°05'1 2.4
2017-May-18 05:30N 26°06' W 080°07'1 1.7
2017-May-18 05:00N 26°06' W 080°06'1 2.9
2017-May-18 04:30N 26°06' W 080°07'0 0.1
2017-May-18 03:18N 26°06' W 080°07'1 4.6
2017-May-18 03:00N 26°05' W 080°07'2 3.8
2017-May-18 02:30N 26°06' W 080°05'  

Dump ship's entire track history